createdAt,value
2022-08-17T00:00:43.005Z,23.60
2022-08-17T00:03:13.573Z,23.53
2022-08-17T00:05:46.596Z,23.51
2022-08-17T00:08:18.331Z,23.47
2022-08-17T00:10:47.979Z,23.45
2022-08-17T00:13:20.124Z,23.40
2022-08-17T00:15:49.383Z,23.31
2022-08-17T00:19:02.080Z,23.25
2022-08-17T00:21:10.399Z,23.19
2022-08-17T00:23:47.974Z,23.17
2022-08-17T00:26:44.496Z,23.15
2022-08-17T00:29:09.259Z,23.15
2022-08-17T00:31:38.605Z,23.14
2022-08-17T00:34:08.568Z,23.14
2022-08-17T00:36:37.383Z,23.13
2022-08-17T00:39:06.434Z,23.13
2022-08-17T00:41:35.488Z,23.08
2022-08-17T00:44:06.061Z,23.00
2022-08-17T00:46:38.679Z,23.02
2022-08-17T00:49:09.019Z,23.02
2022-08-17T00:51:43.863Z,23.01
2022-08-17T00:54:18.033Z,23.01
2022-08-17T00:56:50.518Z,23.02
2022-08-17T00:59:22.797Z,23.04
2022-08-17T01:01:52.077Z,23.04
2022-08-17T01:04:22.215Z,23.07
2022-08-17T01:06:52.841Z,23.08
2022-08-17T01:09:21.793Z,23.08
2022-08-17T01:11:51.780Z,23.06
2022-08-17T01:14:21.793Z,23.02
2022-08-17T01:16:53.513Z,22.99
2022-08-17T01:19:31.667Z,22.95
2022-08-17T01:22:06.445Z,22.90
2022-08-17T01:24:37.102Z,22.87
2022-08-17T01:27:10.260Z,22.86
2022-08-17T01:29:43.598Z,22.87
2022-08-17T01:32:12.899Z,22.83
2022-08-17T01:34:45.528Z,22.77
2022-08-17T01:37:27.213Z,22.74
2022-08-17T01:40:02.567Z,22.72
2022-08-17T01:42:33.123Z,22.66
2022-08-17T01:45:07.675Z,22.58
2022-08-17T01:47:36.978Z,22.53
2022-08-17T01:50:11.931Z,22.47
2022-08-17T01:52:41.788Z,22.40
2022-08-17T01:55:12.968Z,22.29
2022-08-17T01:57:41.787Z,22.19
2022-08-17T02:00:12.792Z,22.08
2022-08-17T02:02:44.425Z,21.96
2022-08-17T02:05:13.397Z,21.88
2022-08-17T02:08:00.064Z,21.80
2022-08-17T02:10:34.066Z,21.71
2022-08-17T02:13:04.177Z,21.66
2022-08-17T02:15:34.170Z,21.67
2022-08-17T02:18:04.179Z,21.68
2022-08-17T02:20:42.044Z,21.70
2022-08-17T02:23:13.944Z,21.71
2022-08-17T02:25:47.144Z,21.70
2022-08-17T02:28:17.251Z,21.69
2022-08-17T02:31:01.331Z,21.66
2022-08-17T02:33:42.491Z,21.65
2022-08-17T02:36:13.683Z,21.65
2022-08-17T02:38:43.437Z,21.64
2022-08-17T02:41:12.743Z,21.63
2022-08-17T02:43:41.936Z,21.64
2022-08-17T02:46:12.167Z,21.62
2022-08-17T02:48:41.456Z,21.58
2022-08-17T02:51:10.614Z,21.52
2022-08-17T02:53:39.524Z,21.45
2022-08-17T02:56:08.590Z,21.46
2022-08-17T02:58:37.930Z,21.47
2022-08-17T03:01:09.201Z,21.42
2022-08-17T03:03:39.135Z,21.36
2022-08-17T03:06:09.325Z,21.36
2022-08-17T03:08:38.210Z,21.40
2022-08-17T03:11:07.032Z,21.44
2022-08-17T03:13:35.821Z,21.48
2022-08-17T03:16:05.076Z,21.48
2022-08-17T03:18:33.969Z,21.48
2022-08-17T03:21:03.903Z,21.48
2022-08-17T03:23:33.403Z,21.50
2022-08-17T03:26:02.262Z,21.49
2022-08-17T03:28:31.049Z,21.50
2022-08-17T03:30:59.997Z,21.50
2022-08-17T03:33:29.055Z,21.51
2022-08-17T03:35:58.879Z,21.54
2022-08-17T03:38:27.803Z,21.56
2022-08-17T03:40:59.775Z,21.59
2022-08-17T03:43:31.820Z,21.62
2022-08-17T03:46:28.691Z,21.65
2022-08-17T03:49:23.553Z,21.67
2022-08-17T03:52:10.848Z,21.67
2022-08-17T03:54:59.033Z,21.72
2022-08-17T03:57:28.605Z,21.73
2022-08-17T03:59:57.973Z,21.73
2022-08-17T04:02:29.269Z,21.75
2022-08-17T04:04:58.673Z,21.78
2022-08-17T04:07:29.754Z,21.82
2022-08-17T04:09:59.231Z,21.84
2022-08-17T04:12:30.120Z,21.86
2022-08-17T04:14:59.202Z,21.88
2022-08-17T04:17:29.344Z,21.90
2022-08-17T04:19:58.380Z,21.94
2022-08-17T04:22:30.823Z,21.99
2022-08-17T04:25:07.638Z,22.03
2022-08-17T04:27:36.534Z,22.08
2022-08-17T04:30:07.334Z,22.11
2022-08-17T04:35:41.351Z,22.26
2022-08-17T04:38:16.076Z,22.30
2022-08-17T04:41:05.673Z,22.36
2022-08-17T04:43:39.533Z,22.41
2022-08-17T04:46:13.830Z,22.46
2022-08-17T04:48:48.460Z,22.52
2022-08-17T04:51:25.166Z,22.58
2022-08-17T04:54:00.607Z,22.64
2022-08-17T04:56:31.522Z,22.73
2022-08-17T04:59:07.590Z,22.77
2022-08-17T05:01:42.410Z,22.85
2022-08-17T05:04:20.930Z,22.92
2022-08-17T05:07:05.785Z,22.98
2022-08-17T05:09:37.945Z,23.09
2022-08-17T05:12:10.678Z,23.18
2022-08-17T05:14:43.163Z,23.26
2022-08-17T05:17:15.441Z,23.29
2022-08-17T05:19:51.749Z,23.33
2022-08-17T05:22:24.371Z,23.37
2022-08-17T05:24:56.589Z,23.42
2022-08-17T05:27:35.084Z,23.47
2022-08-17T05:30:09.538Z,23.50
2022-08-17T05:32:41.748Z,23.53
2022-08-17T05:35:13.948Z,23.54
2022-08-17T05:37:46.118Z,23.60
2022-08-17T05:40:19.086Z,23.67
2022-08-17T05:42:51.865Z,23.74
2022-08-17T05:45:54.135Z,23.80
2022-08-17T05:48:18.762Z,23.86
2022-08-17T05:50:57.200Z,23.89
2022-08-17T05:53:35.214Z,23.93
2022-08-17T05:56:29.611Z,24.02
2022-08-17T05:59:12.086Z,24.12
2022-08-17T06:01:53.067Z,24.25
2022-08-17T06:04:38.034Z,24.37
2022-08-17T06:07:19.041Z,24.49
2022-08-17T06:09:57.455Z,24.62
2022-08-17T06:12:43.700Z,24.75
2022-08-17T06:15:29.941Z,24.90
2022-08-17T06:18:05.653Z,25.06
2022-08-17T06:20:48.393Z,25.21
2022-08-17T06:23:28.460Z,25.34
2022-08-17T06:26:05.312Z,25.45
2022-08-17T06:28:43.106Z,25.51
2022-08-17T06:31:22.504Z,25.57
2022-08-17T06:33:55.253Z,25.61
2022-08-17T06:36:45.883Z,25.65
2022-08-17T06:39:33.955Z,25.81
2022-08-17T06:42:59.871Z,25.95
2022-08-17T06:45:19.382Z,26.19
2022-08-17T06:47:59.775Z,26.40
2022-08-17T06:50:37.735Z,26.58
2022-08-17T06:53:22.225Z,26.69
2022-08-17T06:56:01.162Z,26.87
2022-08-17T06:58:35.887Z,27.11
2022-08-17T07:01:15.505Z,27.39
2022-08-17T07:03:55.076Z,27.63
2022-08-17T07:06:38.119Z,27.84
2022-08-17T07:09:18.347Z,28.09
2022-08-17T07:11:55.814Z,28.30
2022-08-17T07:14:44.568Z,28.45
2022-08-17T07:17:20.696Z,28.63
2022-08-17T07:19:58.639Z,28.87
2022-08-17T07:22:54.816Z,29.19
2022-08-17T07:25:32.759Z,29.56
2022-08-17T07:28:07.927Z,29.85
2022-08-17T07:30:54.983Z,30.14
2022-08-17T07:33:31.591Z,30.47
2022-08-17T07:36:03.885Z,30.67
2022-08-17T07:38:55.461Z,30.85
2022-08-17T07:41:27.866Z,31.09
2022-08-17T07:44:20.043Z,31.26
2022-08-17T07:47:12.281Z,31.53
2022-08-17T07:49:47.528Z,31.81
2022-08-17T07:52:51.971Z,32.05
2022-08-17T07:55:35.074Z,32.30
2022-08-17T07:58:07.322Z,32.49
2022-08-17T08:00:39.727Z,32.70
2022-08-17T08:03:28.650Z,32.92
2022-08-17T08:06:03.644Z,33.19
2022-08-17T08:08:39.364Z,33.40
2022-08-17T08:11:11.087Z,33.54
2022-08-17T08:13:45.871Z,33.72
2022-08-17T08:16:30.422Z,33.95
2022-08-17T08:19:03.642Z,34.01
2022-08-17T08:21:44.105Z,34.07
2022-08-17T08:24:33.472Z,34.22
2022-08-17T08:27:23.315Z,34.51
2022-08-17T08:30:05.096Z,34.91
2022-08-17T08:32:50.646Z,35.21
2022-08-17T08:35:32.628Z,35.31
2022-08-17T08:38:16.669Z,35.24
2022-08-17T08:41:09.146Z,35.23
2022-08-17T08:43:53.245Z,35.39
2022-08-17T08:46:35.472Z,35.47
2022-08-17T08:49:45.570Z,35.63
2022-08-17T08:52:32.445Z,35.83
2022-08-17T08:55:12.376Z,36.09
2022-08-17T08:57:51.170Z,36.37
2022-08-17T09:00:26.355Z,36.56
2022-08-17T09:03:20.254Z,36.63
2022-08-17T09:06:37.902Z,36.56
2022-08-17T09:09:11.588Z,36.60
2022-08-17T09:12:01.411Z,36.54
2022-08-17T09:14:45.402Z,36.68
2022-08-17T09:17:22.702Z,36.90
2022-08-17T09:20:04.085Z,37.13
2022-08-17T09:22:42.811Z,37.30
2022-08-17T09:25:18.234Z,37.44
2022-08-17T09:27:57.461Z,37.51
2022-08-17T09:30:42.413Z,37.42
2022-08-17T09:33:18.703Z,37.14
2022-08-17T09:35:55.046Z,37.10
2022-08-17T09:38:35.691Z,37.09
2022-08-17T09:41:17.720Z,37.06
2022-08-17T09:44:01.835Z,36.97
2022-08-17T09:46:39.249Z,36.98
2022-08-17T09:49:25.030Z,37.22
2022-08-17T09:52:02.437Z,37.27
2022-08-17T09:54:39.734Z,37.18
2022-08-17T09:57:31.060Z,36.96
2022-08-17T10:00:23.804Z,37.11
2022-08-17T10:03:16.387Z,37.26
2022-08-17T10:05:56.568Z,37.21
2022-08-17T10:08:37.461Z,37.28
2022-08-17T10:11:22.604Z,37.19
2022-08-17T10:14:36.720Z,37.05
2022-08-17T10:17:16.843Z,36.91
2022-08-17T10:20:00.361Z,36.99
2022-08-17T10:22:56.976Z,37.03
2022-08-17T10:25:55.063Z,37.06
2022-08-17T10:28:31.640Z,37.06
2022-08-17T10:34:19.256Z,37.15
2022-08-17T10:37:00.718Z,37.48
2022-08-17T10:39:51.952Z,37.73
2022-08-17T10:42:33.360Z,37.86
2022-08-17T10:45:16.821Z,37.72
2022-08-17T10:48:05.829Z,37.45
2022-08-17T10:51:08.382Z,37.37
2022-08-17T10:54:02.052Z,37.45
2022-08-17T10:56:50.532Z,37.26
2022-08-17T10:59:58.361Z,37.06
2022-08-17T11:02:40.833Z,37.00
2022-08-17T11:05:44.018Z,37.03
2022-08-17T11:08:51.813Z,36.76
2022-08-17T11:11:47.572Z,36.56
2022-08-17T11:14:29.984Z,36.45
2022-08-17T11:17:16.703Z,36.32
2022-08-17T11:20:07.748Z,36.22
2022-08-17T11:23:11.017Z,36.10
2022-08-17T11:25:48.624Z,36.00
2022-08-17T11:28:24.692Z,35.85
2022-08-17T11:31:00.240Z,35.68
2022-08-17T11:33:54.528Z,35.45
2022-08-17T11:37:02.652Z,35.28
2022-08-17T11:40:06.703Z,35.14
2022-08-17T11:42:58.076Z,34.82
2022-08-17T11:45:52.970Z,34.72
2022-08-17T11:48:54.542Z,34.69
2022-08-17T11:51:47.810Z,34.64
2022-08-17T11:54:43.344Z,34.63
2022-08-17T11:58:06.709Z,34.66
2022-08-17T12:00:57.915Z,34.57
2022-08-17T12:03:54.458Z,34.35
2022-08-17T12:06:42.638Z,34.23
2022-08-17T12:09:21.047Z,34.20
2022-08-17T12:12:12.445Z,34.24
2022-08-17T12:15:12.920Z,34.25
2022-08-17T12:17:52.622Z,34.25
2022-08-17T12:20:30.482Z,34.17
2022-08-17T12:23:10.625Z,34.14
2022-08-17T12:25:49.585Z,34.15
2022-08-17T12:28:30.787Z,34.15
2022-08-17T12:31:07.139Z,34.10
2022-08-17T12:33:43.967Z,34.04
2022-08-17T12:36:21.104Z,34.00
2022-08-17T12:38:59.607Z,33.98
2022-08-17T12:41:48.049Z,33.97
2022-08-17T12:44:25.167Z,33.99
2022-08-17T12:47:04.719Z,34.00
2022-08-17T12:49:39.479Z,33.95
2022-08-17T12:52:14.450Z,33.92
2022-08-17T12:54:53.785Z,33.87
2022-08-17T12:57:28.479Z,33.87
2022-08-17T13:00:00.981Z,33.91
2022-08-17T13:02:44.079Z,33.93
2022-08-17T13:05:25.364Z,33.95
2022-08-17T13:07:59.763Z,33.95
2022-08-17T13:10:34.009Z,33.90
2022-08-17T13:13:26.160Z,33.81
2022-08-17T13:16:00.981Z,33.83
2022-08-17T13:18:39.181Z,33.84
2022-08-17T13:21:23.314Z,33.86
2022-08-17T13:24:06.033Z,33.93
2022-08-17T13:26:41.488Z,33.98
2022-08-17T13:29:24.102Z,33.99
2022-08-17T13:32:14.389Z,33.95
2022-08-17T13:35:16.257Z,33.88
2022-08-17T13:37:42.621Z,33.77
2022-08-17T13:40:37.102Z,33.68
2022-08-17T13:43:09.979Z,33.62
2022-08-17T13:45:52.633Z,33.57
2022-08-17T13:48:30.332Z,33.51
2022-08-17T13:51:21.160Z,33.47
2022-08-17T13:53:59.393Z,33.36
2022-08-17T13:56:40.093Z,33.13
2022-08-17T13:59:16.398Z,32.87
2022-08-17T14:01:53.774Z,32.69
2022-08-17T14:04:29.477Z,32.58
2022-08-17T14:07:23.393Z,32.52
2022-08-17T14:09:59.364Z,32.44
2022-08-17T14:12:34.475Z,32.43
2022-08-17T14:15:08.473Z,32.42
2022-08-17T14:17:40.938Z,32.38
2022-08-17T14:20:15.362Z,32.34
2022-08-17T14:22:51.101Z,32.28
2022-08-17T14:25:25.093Z,32.22
2022-08-17T14:27:57.709Z,32.13
2022-08-17T14:30:30.981Z,32.03
2022-08-17T14:33:03.277Z,31.96
2022-08-17T14:35:35.608Z,31.87
2022-08-17T14:38:08.115Z,31.80
2022-08-17T14:40:41.206Z,31.76
2022-08-17T14:43:13.433Z,31.69
2022-08-17T14:45:45.732Z,31.62
2022-08-17T14:48:17.961Z,31.53
2022-08-17T14:50:50.149Z,31.43
2022-08-17T14:53:22.314Z,31.35
2022-08-17T14:55:54.549Z,31.27
2022-08-17T14:58:26.774Z,31.20
2022-08-17T15:00:59.095Z,31.15
2022-08-17T15:03:31.544Z,31.07
2022-08-17T15:06:03.998Z,31.04
2022-08-17T15:08:36.438Z,31.06
2022-08-17T15:11:14.263Z,31.11
2022-08-17T15:13:52.492Z,31.16
2022-08-17T15:16:26.286Z,31.23
2022-08-17T15:18:58.465Z,31.28
2022-08-17T15:21:31.111Z,31.33
2022-08-17T15:24:03.309Z,31.34
2022-08-17T15:26:37.002Z,31.36
2022-08-17T15:29:09.617Z,31.41
2022-08-17T15:31:42.268Z,31.46
2022-08-17T15:34:14.487Z,31.48
2022-08-17T15:36:49.513Z,31.55
2022-08-17T15:39:22.244Z,31.58
2022-08-17T15:41:58.659Z,31.57
2022-08-17T15:44:34.798Z,31.57
2022-08-17T15:47:07.637Z,31.56
2022-08-17T15:49:42.323Z,31.56
2022-08-17T15:52:21.580Z,31.59
2022-08-17T15:54:55.804Z,31.61
2022-08-17T15:57:29.027Z,31.62
2022-08-17T16:00:01.415Z,31.62
2022-08-17T16:03:44.760Z,31.59
2022-08-17T16:05:31.212Z,31.59
2022-08-17T16:08:03.911Z,31.55
2022-08-17T16:10:36.201Z,31.49
2022-08-17T16:13:17.372Z,31.44
2022-08-17T16:15:56.696Z,31.38
2022-08-17T16:18:32.077Z,31.29
2022-08-17T16:21:21.552Z,31.19
2022-08-17T16:23:56.910Z,31.12
2022-08-17T16:26:30.643Z,31.10
2022-08-17T16:29:06.272Z,31.08
2022-08-17T16:31:38.904Z,31.04
2022-08-17T16:34:17.505Z,30.99
2022-08-17T16:36:56.022Z,30.96
2022-08-17T16:39:30.922Z,30.91
2022-08-17T16:42:03.137Z,30.86
2022-08-17T16:44:35.718Z,30.81
2022-08-17T16:47:09.896Z,30.78
2022-08-17T16:49:42.083Z,30.75
2022-08-17T16:52:15.069Z,30.75
2022-08-17T16:55:06.513Z,30.74
2022-08-17T16:57:38.803Z,30.71
2022-08-17T17:00:21.166Z,30.69
2022-08-17T17:02:54.764Z,30.66
2022-08-17T17:05:42.432Z,30.62
2022-08-17T17:08:21.192Z,30.56
2022-08-17T17:10:56.565Z,30.50
2022-08-17T17:13:32.294Z,30.43
2022-08-17T17:16:15.895Z,30.41
2022-08-17T17:19:01.815Z,30.37
2022-08-17T17:21:39.098Z,30.30
2022-08-17T17:24:16.511Z,30.21
2022-08-17T17:27:07.118Z,30.18
2022-08-17T17:29:53.267Z,30.11
2022-08-17T17:32:38.298Z,30.03
2022-08-17T17:35:17.179Z,29.95
2022-08-17T17:37:51.522Z,29.89
2022-08-17T17:40:26.725Z,29.83
2022-08-17T17:43:14.303Z,29.77
2022-08-17T17:45:55.112Z,29.66
2022-08-17T17:48:29.363Z,29.62
2022-08-17T17:51:11.984Z,29.53
2022-08-17T17:53:55.215Z,29.47
2022-08-17T17:56:39.869Z,29.40
2022-08-17T17:59:27.157Z,29.35
2022-08-17T18:02:08.822Z,29.30
2022-08-17T18:04:51.336Z,29.26
2022-08-17T18:07:33.459Z,29.21
2022-08-17T18:10:29.463Z,29.14
2022-08-17T18:13:11.806Z,29.08
2022-08-17T18:15:51.407Z,29.04
2022-08-17T18:18:39.833Z,29.00
2022-08-17T18:21:19.514Z,28.96
2022-08-17T18:23:56.854Z,28.92
2022-08-17T18:26:53.267Z,28.88
2022-08-17T18:29:42.486Z,28.82
2022-08-17T18:32:36.328Z,28.78
2022-08-17T18:35:30.910Z,28.74
2022-08-17T18:38:23.248Z,28.71
2022-08-17T18:41:18.860Z,28.67
2022-08-17T18:44:03.663Z,28.63
2022-08-17T18:46:37.940Z,28.58
2022-08-17T18:49:28.809Z,28.59
2022-08-17T18:52:15.436Z,28.57
2022-08-17T18:55:09.861Z,28.56
2022-08-17T18:57:45.607Z,28.52
2022-08-17T19:00:22.683Z,28.48
2022-08-17T19:02:58.363Z,28.46
2022-08-17T19:05:36.782Z,28.43
2022-08-17T19:08:25.287Z,28.41
2022-08-17T19:11:02.472Z,28.41
2022-08-17T19:13:41.155Z,28.42
2022-08-17T19:16:18.715Z,28.43
2022-08-17T19:18:58.728Z,28.43
2022-08-17T19:21:40.460Z,28.43
2022-08-17T19:24:19.687Z,28.41
2022-08-17T19:26:57.802Z,28.40
2022-08-17T19:29:38.896Z,28.40
2022-08-17T19:32:21.909Z,28.38
2022-08-17T19:34:54.531Z,28.35
2022-08-17T19:37:36.877Z,28.33
2022-08-17T19:40:51.052Z,28.30
2022-08-17T19:43:24.652Z,28.26
2022-08-17T19:46:06.113Z,28.22
2022-08-17T19:48:51.849Z,28.19
2022-08-17T19:51:35.397Z,28.13
2022-08-17T19:54:16.005Z,28.13
2022-08-17T19:56:56.825Z,28.10
2022-08-17T19:59:48.739Z,28.09
2022-08-17T20:02:32.396Z,28.08
2022-08-17T20:05:07.781Z,28.06
2022-08-17T20:07:48.633Z,28.03
2022-08-17T20:10:30.281Z,28.00
2022-08-17T20:13:09.408Z,27.96
2022-08-17T20:15:43.629Z,27.94
2022-08-17T20:18:25.032Z,27.91
2022-08-17T20:21:02.960Z,27.87
2022-08-17T20:23:46.488Z,27.78
2022-08-17T20:26:26.578Z,27.73
2022-08-17T20:29:37.422Z,27.67
2022-08-17T20:32:27.395Z,27.61
2022-08-17T20:35:21.182Z,27.60
2022-08-17T20:37:59.866Z,27.61
2022-08-17T20:40:39.403Z,27.61
2022-08-17T20:43:45.763Z,27.60
2022-08-17T20:46:32.748Z,27.60
2022-08-17T20:49:26.214Z,27.56
2022-08-17T20:52:08.411Z,27.54
2022-08-17T20:54:53.076Z,27.52
2022-08-17T20:57:50.791Z,27.50
2022-08-17T21:00:50.327Z,27.47
2022-08-17T21:03:50.997Z,27.45
2022-08-17T21:06:26.939Z,27.45
2022-08-17T21:08:59.641Z,27.45
2022-08-17T21:12:04.012Z,27.44
2022-08-17T21:14:57.494Z,27.45
2022-08-17T21:17:46.538Z,27.46
2022-08-17T21:20:32.608Z,27.47
2022-08-17T21:23:25.613Z,27.47
2022-08-17T21:26:30.399Z,27.47
2022-08-17T21:29:29.964Z,27.44
2022-08-17T21:32:28.560Z,27.41
2022-08-17T21:35:47.296Z,27.40
2022-08-17T21:38:22.517Z,27.38
2022-08-17T21:40:54.497Z,27.38
2022-08-17T21:43:32.618Z,27.35
2022-08-17T21:46:09.623Z,27.31
2022-08-17T21:48:49.438Z,27.22
2022-08-17T21:51:30.306Z,27.11
2022-08-17T21:54:06.129Z,27.04
2022-08-17T21:56:42.935Z,26.96
2022-08-17T21:59:27.405Z,26.87
2022-08-17T22:02:02.155Z,26.77
2022-08-17T22:04:36.419Z,26.72
2022-08-17T22:07:11.316Z,26.68
2022-08-17T22:09:47.293Z,26.63
2022-08-17T22:12:21.607Z,26.57
2022-08-17T22:15:04.374Z,26.54
2022-08-17T22:17:40.488Z,26.48
2022-08-17T22:20:16.879Z,26.43
2022-08-17T22:23:30.017Z,26.36
2022-08-17T22:26:05.212Z,26.31
2022-08-17T22:28:46.949Z,26.26
2022-08-17T22:31:20.845Z,26.20
2022-08-17T22:34:07.986Z,26.16
2022-08-17T22:36:41.991Z,26.13
2022-08-17T22:39:42.868Z,26.15
2022-08-17T22:42:18.031Z,26.14
2022-08-17T22:44:53.421Z,26.16
2022-08-17T22:47:38.767Z,26.18
2022-08-17T22:50:23.406Z,26.17
2022-08-17T22:53:22.320Z,26.16
2022-08-17T22:56:14.999Z,26.16
2022-08-17T22:59:11.479Z,26.13
2022-08-17T23:01:46.544Z,26.08
2022-08-17T23:04:37.269Z,26.05
2022-08-17T23:07:09.720Z,26.00
2022-08-17T23:09:41.893Z,25.98
2022-08-17T23:12:27.955Z,25.97
2022-08-17T23:15:04.782Z,25.95
2022-08-17T23:17:37.672Z,25.93
2022-08-17T23:20:13.992Z,25.96
2022-08-17T23:22:51.723Z,25.98
2022-08-17T23:25:29.208Z,25.98
2022-08-17T23:28:03.009Z,25.99
2022-08-17T23:30:38.267Z,25.96
2022-08-17T23:33:11.552Z,25.94
2022-08-17T23:35:44.754Z,25.89
2022-08-17T23:38:17.246Z,25.83
2022-08-17T23:40:49.462Z,25.77
2022-08-17T23:43:25.331Z,25.74
2022-08-17T23:45:59.844Z,25.72
2022-08-17T23:48:36.677Z,25.68
2022-08-17T23:51:14.007Z,25.65
2022-08-17T23:53:50.186Z,25.65
2022-08-17T23:56:24.716Z,25.66
2022-08-17T23:58:58.636Z,25.66
